Terminal Aerodrome Forecast
Issued by NWS Goodland, KS

Home | Current Version | Previous Version | Text Only | Print | Product List | Glossary On
Versions: 1 2 3 4 5 6 7 8 9 10 11 12 13 14 15 16 17
000
FTUS43 KGLD 231730
TAFGLD
TAF
KGLD 231730Z 2318/2418 20018G28KT P6SM SCT250
     FM240000 17011KT P6SM VCTS SCT070CB BKN150
     FM240400 10012G20KT P6SM BKN050 WS020/18045KT
     FM240900 VRB06KT P6SM VCSH BKN035
     FM241100 05011KT P6SM -RASN BKN015
     FM241600 35030G45KT P6SM -RASN BKN008=

USA.gov is the U.S. government's official web portal to all federal, state and local government web resources and services.